METAR AND TAF INFORMATION
METAR FOR ENHD
ADDS - METARS form results

(1458 UTC 02 July 2020)
Data provider http://aviationweather.gov/metar/data/
 
METAR text: ENHD 021450Z AUTO 29007KT 240V340 9999 BKN037/// 12/06 Q1007
Conditions at: ENHD (HAUGESUND/KARMOY, NO) observed 1450 UTC 02 July 2020
Temperature: 12.0°C (54°F)
Dewpoint: 6.0°C (43°F) [RH = 67%]
Pressure (altimeter): 29.73 inches Hg (1007.0 mb)
Winds: from the WNW (290 degrees) at 8 MPH (7 knots; 3.6 m/s)
Visibility: 6 or more miles (10+ km)
Ceiling: 3700 feet AGL
Clouds: broken clouds at 3700 feet AGL
Weather: no significant weather observed at this time

METAR text: ENHD 021420Z AUTO 27015KT 9999 SCT046/// BKN059/// 12/06 Q1007
Conditions at: ENHD (HAUGESUND/KARMOY, NO) observed 1420 UTC 02 July 2020
Temperature: 12.0°C (54°F)
Dewpoint: 6.0°C (43°F) [RH = 67%]
Pressure (altimeter): 29.73 inches Hg (1007.0 mb)
Winds: from the W (270 degrees) at 17 MPH (15 knots; 7.7 m/s)
Visibility: 6 or more miles (10+ km)
Ceiling: 5900 feet AGL
Clouds: scattered clouds at 4600 feet AGL
broken clouds at 5900 feet AGL
Weather: no significant weather observed at this time

 AIRPORT MAP

 RUNWAY INFORMATION
Runway 14 Runway length 6957 ft Runway width 148 ft
Runway elevation 61 ft Runway displaced threshold 197 ft Runway heading 134
Runway 32 Runway length 6957 ft Runway width 148 ft
Runway elevation 86 ft Runway displaced threshold 197 ft Runway heading 314

 AIRPORT FREQUENCIES
Type ATIS Name ATIS Frequency 118.175 MHZ
Type TWR Name TWR Frequency 120.5 MHZ

 AIRPORT NEAR NAVIGATION AIDS
Type VOR-DME Name Karmoy Frequency 115150 KHZ



Powered by Virtual Airlines Manager [v2.6.2]